Terminal Aerodrome Forecast
Issued by NWS Duluth, MN

Home | Current Version | Previous Version | Text Only | Print | Product List | Glossary On
Versions: 1 2 3 4 5 6 7 8 9 10 11 12 13 14 15 16 17 18 19 20 21 22 23 24 25 26 27 28 29
000
FTUS43 KDLH 031127
TAFINL
TAF
KINL 031127Z 0312/0412 26004KT P6SM VCSH BKN012
      TEMPO 0312/0314 6SM -RA BKN007
     FM031600 32007KT P6SM SCT035 BKN070
     FM040100 35003KT P6SM FEW080=

USA.gov is the U.S. government's official web portal to all federal, state and local government web resources and services.